Latest Weather Observations for Longerenong

IDV60801

Issued at 1:36 am EDT Monday 27 March 2017 (issued every 30 minutes, with the page automatically refreshed every 10 minutes)

About weather observations | Map of weather stations | Latest weather observations for VIC | Other Formats
Station Details ID: 079028 Name: LONGERENONG Lat: -36.67 Lon: 142.30 Height: 133.0 m
Data from the previous 72 hours. | See also: Recent months at Longerenong
Date/Time
EDT
Temp
°C
App
Temp
°C
Dew
Point
°C
Rel
Hum
%
Delta-T
°C
Wind Press
QNH
hPa
Press
MSL
hPa
Rain since
9am
mm
Dir  Spd
km/h
Gust
km/h
Spd
kts
Gust
kts
27/01:30am 21.4 20.5 12.5 57 5.1 NE 9 15 5 8 - - 0.0
27/01:00am 21.7 20.8 12.5 56 5.2 NE 9 13 5 7 - - 0.0
27/12:30am 22.2 21.7 12.5 54 5.5 NE 7 11 4 6 - - 0.0
27/12:00am 22.3 21.9 12.3 53 5.7 NE 6 9 3 5 - - 0.0
 
Date/Time
EDT
Temp
°C
App
Temp
°C
Dew
Point
°C
Rel
Hum
%
Delta-T
°C
Wind Press
QNH
hPa
Press
MSL
hPa
Rain since
9am
mm
Dir  Spd
km/h
Gust
km/h
Spd
kts
Gust
kts
26/11:30pm 22.6 22.2 12.3 52 5.9 NE 6 9 3 5 - - 0.0
26/11:00pm 23.3 22.8 12.0 49 6.4 NE 6 9 3 5 - - 0.0
26/10:30pm 23.7 23.0 12.0 48 6.7 NE 7 9 4 5 - - 0.0
26/10:00pm 23.4 22.8 11.8 48 6.6 N 6 9 3 5 - - 0.0
26/09:30pm 24.9 24.4 12.2 45 7.3 NNE 6 7 3 4 - - 0.0
26/09:00pm 25.5 24.8 12.0 43 7.8 NNE 7 9 4 5 - - 0.0
26/08:30pm 26.1 25.6 12.2 42 8.0 NNE 6 9 3 5 - - 0.0
26/08:00pm 26.2 25.7 11.9 41 8.2 NNE 6 7 3 4 - - 0.0
26/07:30pm 26.7 25.8 10.8 37 9.0 NE 6 7 3 4 - - 0.0
26/07:00pm 27.2 26.7 10.8 36 9.3 NE 4 6 2 3 - - 0.0
26/06:30pm 27.5 27.5 11.1 36 9.4 N 2 4 1 2 - - 0.0
26/06:00pm 28.2 28.1 10.9 34 9.9 NNW 2 7 1 4 - - 0.0
26/05:30pm 28.9 27.5 11.0 33 10.3 NW 9 13 5 7 - - 0.0
26/05:00pm 28.2 26.5 11.3 35 9.7 WNW 11 17 6 9 - - 0.0
26/04:30pm 27.9 27.2 11.9 37 9.3 WSW 7 13 4 7 - - 0.0
26/04:00pm 27.2 26.1 12.0 38 8.8 WSW 9 17 5 9 - - 0.0
26/03:30pm 27.4 27.4 13.7 43 8.2 W 6 11 3 6 - - 0.0
26/03:00pm 27.0 26.5 13.7 44 7.9 NNW 9 15 5 8 - - 0.0
26/02:30pm 27.1 27.2 14.5 46 7.6 NW 7 17 4 9 - - 0.0
26/02:00pm 26.1 27.2 15.5 52 6.5 E 4 7 2 4 - - 0.0
26/01:30pm 25.4 27.0 16.0 56 5.8 NE 2 4 1 2 - - 0.0
26/01:00pm 24.5 25.7 16.0 59 5.2 ENE 4 6 2 3 - - 0.0
26/12:30pm 23.6 24.9 16.1 62 4.6 NE 4 9 2 5 - - 0.0
26/12:00pm 23.1 24.1 16.4 66 4.1 ENE 6 9 3 5 - - 0.0
26/11:30am 22.0 22.9 16.1 69 3.6 E 6 11 3 6 - - 0.0
26/11:00am 21.3 22.0 16.0 72 3.2 SE 7 13 4 7 - - 0.0
26/10:30am 20.2 20.4 15.8 76 2.6 SE 9 13 5 7 - - 0.0
26/10:00am 19.2 19.5 15.9 81 2.0 SE 9 15 5 8 - - 0.0
26/09:30am 18.6 18.0 15.7 83 1.7 SE 13 17 7 9 - - 0.0
26/09:00am 17.5 17.6 16.5 94 0.6 SE 11 13 6 7 - - 0.0
26/08:30am 15.4 16.6 14.9 97 0.3 SSE 2 4 1 2 - - 0.0
26/08:00am 13.9 14.2 13.3 96 0.3 SSE 4 6 2 3 - - 0.0
26/07:30am 13.3 13.4 12.7 96 0.3 SSE 4 4 2 2 - - 0.0
26/07:00am 13.8 14.0 13.2 96 0.3 SSE 4 4 2 2 - - 0.0
26/06:30am 14.3 14.3 13.7 96 0.3 SSE 6 7 3 4 - - 0.0
26/06:00am 14.7 14.7 14.1 96 0.3 SSE 7 9 4 5 - - 0.0
26/05:30am 13.9 13.8 13.3 96 0.3 S 6 7 3 4 - - 0.0
26/05:00am 14.1 14.0 13.3 95 0.4 S 6 6 3 3 - - 0.0
26/04:30am 14.2 14.4 13.2 94 0.6 S 4 4 2 2 - - 0.0
26/04:00am 14.3 14.3 13.5 95 0.4 S 6 7 3 4 - - 0.0
26/03:30am 15.0 15.1 14.0 94 0.6 S 6 7 3 4 - - 0.0
26/03:00am 15.4 15.6 14.3 93 0.6 S 6 6 3 3 - - 0.0
26/02:30am - - - - - S 6 7 3 4 - - 0.0
26/02:00am - - - - - SSE 7 9 4 5 - - 0.0
26/01:30am - - - - - SE 9 13 5 7 - - 0.0
26/01:00am - - - - - SE 11 15 6 8 - - 0.0
26/12:30am - - - - - SE 13 19 7 10 - - 0.0
26/12:00am 19.3 19.3 16.2 82 1.9 SSE 11 15 6 8 - - 0.0
 
Date/Time
EDT
Temp
°C
App
Temp
°C
Dew
Point
°C
Rel
Hum
%
Delta-T
°C
Wind Press
QNH
hPa
Press
MSL
hPa
Rain since
9am
mm
Dir  Spd
km/h
Gust
km/h
Spd
kts
Gust
kts
25/11:30pm 19.1 19.7 15.2 78 2.3 SSE 6 9 3 5 - - 0.0
25/11:00pm 20.0 20.6 15.8 77 2.5 SSE 7 9 4 5 - - 0.0
25/10:30pm 21.6 20.9 16.3 72 3.2 SSW 15 17 8 9 - - 0.0
25/10:00pm 22.3 21.8 16.8 71 3.4 SSW 15 19 8 10 - - 0.0
25/09:30pm 23.3 22.5 17.1 68 3.8 SW 17 20 9 11 - - 0.0
25/09:00pm 24.4 23.2 16.1 60 5.1 SW 17 24 9 13 - - 0.0
25/08:30pm 25.2 24.2 13.4 48 6.9 WSW 11 15 6 8 - - 0.0
25/08:00pm 25.5 24.2 12.4 44 7.6 W 11 15 6 8 - - 0.0
25/07:30pm 27.1 25.5 12.7 41 8.4 WSW 13 19 7 10 - - 0.0
25/07:00pm 28.8 25.6 11.4 34 10.1 WSW 19 24 10 13 - - 0.0
25/06:30pm 29.6 26.5 12.1 34 10.3 WSW 20 30 11 16 - - 0.0
25/06:00pm 30.4 27.5 12.3 33 10.7 WSW 19 26 10 14 - - 0.0
25/05:30pm 30.9 28.2 12.8 33 10.8 SW 19 32 10 17 - - 0.0
25/05:00pm 32.3 28.4 12.0 29 12.0 WNW 24 39 13 21 - - 0.0
25/04:30pm 32.3 28.5 12.5 30 11.8 W 24 35 13 19 - - 0.0
25/04:00pm 31.1 27.7 12.5 32 11.1 WSW 22 33 12 18 - - 0.0
25/03:30pm - - - - - WNW 19 30 10 16 - - 0.0
25/03:00pm - - - - - W 19 32 10 17 - - 0.0
25/02:30pm - - - - - W 19 26 10 14 - - 0.0
25/02:00pm - - - - - NW 17 35 9 19 - - 0.0
25/01:30pm - - - - - W 11 26 6 14 - - 0.0
25/01:00pm 29.7 27.6 13.5 37 9.7 WNW 17 26 9 14 - - 0.0
25/12:30pm 30.2 28.2 13.9 37 9.9 WNW 17 24 9 13 - - 0.0
25/12:00pm 29.0 29.4 14.8 42 8.7 N 6 11 3 6 - - 0.0
25/11:30am 27.5 28.2 15.5 48 7.4 N 6 13 3 7 - - 0.0
25/11:00am 25.8 26.3 15.5 53 6.3 NNE 7 15 4 8 - - 0.0
25/10:30am 24.1 24.2 15.6 59 5.2 NNE 9 13 5 7 - - 0.0
25/10:00am 23.2 23.7 15.5 62 4.6 NE 7 13 4 7 - - 0.0
25/09:30am 21.9 22.2 15.0 65 4.1 ENE 7 11 4 6 - - 0.0
25/09:00am 20.1 20.6 14.9 72 3.1 E 6 9 3 5 - - 0.0
25/08:30am 19.4 19.7 14.4 73 2.9 ENE 6 9 3 5 - - 0.0
25/08:00am 18.8 18.5 14.5 76 2.5 E 9 9 5 5 - - 0.0
25/07:30am 18.6 18.6 14.3 76 2.5 ESE 7 9 4 5 - - 0.0
25/07:00am 18.4 18.6 14.3 77 2.4 ESE 6 7 3 4 - - 0.0
25/06:30am 18.6 20.0 14.5 77 2.4 CALM 0 2 0 1 - - 0.0
25/06:00am 19.2 19.5 14.5 74 2.7 E 6 9 3 5 - - 0.0
25/05:30am 19.7 19.3 14.1 70 3.3 ENE 9 15 5 8 - - 0.0
25/05:00am 19.8 19.1 14.2 70 3.3 NE 11 17 6 9 - - 0.0
25/04:30am 19.8 19.0 14.0 69 3.4 NE 11 17 6 9 - - 0.0
25/04:00am 20.0 19.5 13.7 67 3.6 ENE 9 15 5 8 - - 0.0
25/03:30am 20.2 19.9 13.2 64 4.0 E 7 9 4 5 - - 0.0
25/03:00am 20.1 19.8 12.6 62 4.2 ESE 6 9 3 5 - - 0.0
25/02:30am 20.5 20.0 12.5 60 4.5 ENE 7 11 4 6 - - 0.0
25/02:00am 20.7 20.1 12.4 59 4.7 E 7 11 4 6 - - 0.0
25/01:30am 21.2 20.6 12.3 57 5.0 ENE 7 11 4 6 - - 0.0
25/01:00am 21.2 20.6 12.3 57 5.0 ENE 7 13 4 7 - - 0.0
25/12:30am 20.4 19.7 12.1 59 4.7 ENE 7 9 4 5 - - 0.0
25/12:00am 19.1 18.7 11.2 60 4.3 E 4 6 2 3 - - 0.0
 
Date/Time
EDT
Temp
°C
App
Temp
°C
Dew
Point
°C
Rel
Hum
%
Delta-T
°C
Wind Press
QNH
hPa
Press
MSL
hPa
Rain since
9am
mm
Dir  Spd
km/h
Gust
km/h
Spd
kts
Gust
kts
24/11:30pm 19.2 19.1 10.7 58 4.6 E 2 4 1 2 - - 0.0
24/11:00pm 19.9 19.5 11.1 57 4.8 ENE 4 4 2 2 - - 0.0
24/10:30pm 20.9 20.6 11.5 55 5.2 ENE 4 7 2 4 - - 0.0
24/10:00pm 21.2 20.3 11.2 53 5.6 ENE 7 11 4 6 - - 0.0
24/09:30pm 20.8 20.0 10.9 53 5.5 ENE 6 7 3 4 - - 0.0
24/09:00pm 21.3 20.4 10.8 51 5.8 E 6 6 3 3 - - 0.0
24/08:30pm 21.9 21.3 10.4 48 6.3 ESE 4 6 2 3 - - 0.0
24/08:00pm 22.9 22.0 10.7 46 6.8 E 6 6 3 3 - - 0.0
24/07:30pm 25.3 24.8 10.7 40 8.2 ENE 4 4 2 2 - - 0.0
24/07:00pm 26.6 25.7 10.7 37 9.0 ENE 6 13 3 7 - - 0.0
24/06:30pm 27.3 26.5 10.9 36 9.3 E 6 9 3 5 - - 0.0
24/06:00pm 27.1 26.6 10.8 36 9.3 NE 4 9 2 5 - - 0.0
24/05:30pm - - - - - E 9 19 5 10 - - 0.0
24/05:00pm - - - - - ENE 11 17 6 9 - - 0.0
24/04:30pm - - - - - ENE 9 19 5 10 - - 0.0
24/04:00pm - - - - - NE 13 24 7 13 - - 0.0
24/03:30pm - - - - - ENE 9 17 5 9 - - 0.0
24/03:00pm - - - - - NE 11 20 6 11 - - 0.0
24/02:30pm - - - - - NE 13 24 7 13 - - 0.0
24/02:00pm - - - - - NE 11 24 6 13 - - 0.0
24/01:30pm - - - - - NE 13 24 7 13 - - 0.0
24/01:00pm - - - - - ENE 11 24 6 13 - - 0.0
24/12:30pm - - - - - ENE 11 24 6 13 - - 0.0
24/12:00pm - - - - - ENE 15 24 8 13 - - 0.0
24/11:30am - - - - - ENE 15 22 8 12 - - 0.0
24/11:00am - - - - - ENE 13 20 7 11 - - 0.0
24/10:30am - - - - - E 15 24 8 13 - - 0.0
24/10:00am - - - - - E 17 24 9 13 - - 0.0
24/09:30am - - - - - E 15 20 8 11 - - 0.0
24/09:00am - - - - - E 13 17 7 9 - - 0.0
24/08:30am - - - - - E 11 17 6 9 - - 0.0
24/08:00am - - - - - ESE 7 9 4 5 - - 0.0
24/07:30am - - - - - E 9 13 5 7 - - 0.0
24/07:00am - - - - - E 11 13 6 7 - - 0.0
24/06:30am - - - - - E 11 15 6 8 - - 0.0
24/06:00am - - - - - E 11 17 6 9 - - 0.0
24/05:30am - - - - - ESE 13 19 7 10 - - 0.0
24/05:00am - - - - - ESE 15 17 8 9 - - 0.0
24/04:30am - - - - - ESE 15 20 8 11 - - 0.0
24/04:00am - - - - - ESE 17 20 9 11 - - 0.0
24/03:30am - - - - - ESE 17 20 9 11 - - 0.0
24/03:00am - - - - - ESE 17 20 9 11 - - 0.0
24/02:30am - - - - - ESE 19 26 10 14 - - 0.0
24/02:00am - - - - - SE 20 26 11 14 - - 0.0

Other Formats:

Comma delimited format used in spreadsheet applications
http://www.bom.gov.au/fwo/IDV60801/IDV60801.95835.axf

JavaScript Object Notation format (JSON) in row-major order
http://www.bom.gov.au/fwo/IDV60801/IDV60801.95835.json